createdAt,value
2022-10-28T00:00:14.124Z,101180.19
2022-10-28T00:02:41.901Z,101176.41
2022-10-28T00:05:09.259Z,101177.91
2022-10-28T00:07:36.116Z,101168.56
2022-10-28T00:10:03.579Z,101170.72
2022-10-28T00:12:36.349Z,101168.59
2022-10-28T00:15:05.659Z,101165.16
2022-10-28T00:17:32.836Z,101165.22
2022-10-28T00:19:59.936Z,101165.16
2022-10-28T00:22:27.580Z,101179.69
2022-10-28T00:24:54.456Z,101176.13
2022-10-28T00:27:21.128Z,101180.50
2022-10-28T00:29:47.881Z,101171.94
2022-10-28T00:32:14.637Z,101176.41
2022-10-28T00:34:41.550Z,101172.25
2022-10-28T00:37:08.263Z,101174.75
2022-10-28T00:39:34.940Z,101181.06
2022-10-28T00:42:04.746Z,101177.22
2022-10-28T00:44:49.538Z,101170.16
2022-10-28T00:47:37.605Z,101171.63
2022-10-28T00:50:15.024Z,101169.41
2022-10-28T00:52:46.419Z,101162.03
2022-10-28T00:55:16.311Z,101159.19
2022-10-28T00:57:44.964Z,101157.56
2022-10-28T01:00:12.526Z,101158.09
2022-10-28T01:02:49.048Z,101160.88
2022-10-28T01:05:20.752Z,101165.75
2022-10-28T01:07:48.240Z,101160.88
2022-10-28T01:10:15.494Z,101160.28
2022-10-28T01:12:56.605Z,101162.72
2022-10-28T01:15:45.252Z,101164.28
2022-10-28T01:18:27.340Z,101168.03
2022-10-28T01:20:56.996Z,101161.00
2022-10-28T01:23:41.846Z,101158.25
2022-10-28T01:26:17.679Z,101162.84
2022-10-28T01:29:17.269Z,101155.25
2022-10-28T01:31:52.719Z,101150.41
2022-10-28T01:34:31.626Z,101149.59
2022-10-28T01:36:58.283Z,101153.19
2022-10-28T01:39:50.474Z,101160.31
2022-10-28T01:42:26.310Z,101160.09
2022-10-28T01:45:17.119Z,101157.66
2022-10-28T01:48:00.510Z,101158.66
2022-10-28T01:50:37.171Z,101152.13
2022-10-28T01:53:09.561Z,101156.50
2022-10-28T01:55:41.391Z,101159.84
2022-10-28T01:58:10.931Z,101145.66
2022-10-28T02:00:40.970Z,101145.28
2022-10-28T02:03:09.666Z,101137.41
2022-10-28T02:05:39.331Z,101135.16
2022-10-28T02:08:18.258Z,101139.09
2022-10-28T02:10:57.814Z,101142.59
2022-10-28T02:13:36.027Z,101137.50
2022-10-28T02:16:18.010Z,101128.19
2022-10-28T02:19:03.485Z,101133.31
2022-10-28T02:21:42.759Z,101127.00
2022-10-28T02:24:24.301Z,101124.94
2022-10-28T02:27:15.620Z,101129.09
2022-10-28T02:30:09.236Z,101128.78
2022-10-28T02:32:42.503Z,101127.63
2022-10-28T02:35:16.518Z,101125.41
2022-10-28T02:37:46.603Z,101114.06
2022-10-28T02:40:19.104Z,101116.50
2022-10-28T02:42:52.465Z,101105.38
2022-10-28T02:45:24.560Z,101103.84
2022-10-28T02:47:57.556Z,101102.72
2022-10-28T02:50:33.018Z,101110.16
2022-10-28T02:53:05.754Z,101092.16
2022-10-28T02:55:45.793Z,101086.47
2022-10-28T02:58:14.236Z,101085.94
2022-10-28T03:00:45.560Z,101081.09
2022-10-28T03:03:14.149Z,101082.69
2022-10-28T03:05:48.459Z,101073.47
2022-10-28T03:08:16.782Z,101073.69
2022-10-28T03:10:43.496Z,101075.09
2022-10-28T03:13:10.200Z,101070.75
2022-10-28T03:15:36.914Z,101060.97
2022-10-28T03:18:03.715Z,101051.72
2022-10-28T03:20:30.427Z,101059.56
2022-10-28T03:22:57.938Z,101062.84
2022-10-28T03:25:24.648Z,101048.72
2022-10-28T03:27:51.387Z,101054.16
2022-10-28T03:30:19.033Z,101049.00
2022-10-28T03:32:45.774Z,101055.78
2022-10-28T03:35:12.814Z,101052.28
2022-10-28T03:37:43.656Z,101056.09
2022-10-28T03:40:11.571Z,101051.19
2022-10-28T03:42:42.354Z,101047.66
2022-10-28T03:45:10.068Z,101053.94
2022-10-28T03:47:37.315Z,101058.78
2022-10-28T03:50:04.557Z,101064.53
2022-10-28T03:52:31.337Z,101069.41
2022-10-28T03:54:58.318Z,101070.22
2022-10-28T03:57:25.075Z,101073.97
2022-10-28T03:59:51.757Z,101075.88
2022-10-28T04:02:18.642Z,101072.06
2022-10-28T04:04:45.464Z,101072.16
2022-10-28T04:07:12.230Z,101056.09
2022-10-28T04:09:38.932Z,101065.03
2022-10-28T04:12:06.632Z,101057.19
2022-10-28T04:14:33.342Z,101052.56
2022-10-28T04:17:00.024Z,101053.91
2022-10-28T04:19:26.738Z,101058.81
2022-10-28T04:21:53.576Z,101057.44
2022-10-28T04:24:20.319Z,101059.31
2022-10-28T04:26:47.144Z,101063.66
2022-10-28T04:29:13.869Z,101066.69
2022-10-28T04:31:40.613Z,101071.56
2022-10-28T04:34:07.248Z,101081.63
2022-10-28T04:36:33.980Z,101077.03
2022-10-28T04:39:00.648Z,101086.50
2022-10-28T04:41:27.437Z,101094.13
2022-10-28T04:43:56.226Z,101096.28
2022-10-28T04:46:22.917Z,101095.44
2022-10-28T04:48:49.613Z,101088.09
2022-10-28T04:51:16.353Z,101087.84
2022-10-28T04:53:43.088Z,101088.06
2022-10-28T04:56:09.936Z,101081.03
2022-10-28T04:58:36.739Z,101081.50
2022-10-28T05:01:10.574Z,101076.59
2022-10-28T05:03:37.356Z,101076.00
2022-10-28T05:06:04.187Z,101070.56
2022-10-28T05:08:31.103Z,101081.31
2022-10-28T05:10:57.844Z,101083.19
2022-10-28T05:13:24.668Z,101092.34
2022-10-28T05:15:51.346Z,101092.84
2022-10-28T05:18:18.330Z,101085.34
2022-10-28T05:20:45.407Z,101084.69
2022-10-28T05:23:12.248Z,101079.75
2022-10-28T05:25:39.016Z,101076.81
2022-10-28T05:28:06.382Z,101069.22
2022-10-28T05:30:33.322Z,101079.41
2022-10-28T05:33:02.271Z,101078.03
2022-10-28T05:35:30.248Z,101070.59
2022-10-28T05:37:57.755Z,101064.34
2022-10-28T05:40:24.838Z,101064.41
2022-10-28T05:42:51.855Z,101060.84
2022-10-28T05:45:19.131Z,101064.34
2022-10-28T05:47:47.414Z,101065.19
2022-10-28T05:50:16.248Z,101059.19
2022-10-28T05:52:52.637Z,101039.97
2022-10-28T05:55:20.901Z,101042.94
2022-10-28T05:57:48.835Z,101040.50
2022-10-28T06:00:17.414Z,101037.25
2022-10-28T06:02:46.108Z,101041.28
2022-10-28T06:05:13.643Z,101033.69
2022-10-28T06:07:41.199Z,101039.41
2022-10-28T06:10:10.742Z,101051.09
2022-10-28T06:12:37.642Z,101044.84
2022-10-28T06:15:04.735Z,101050.03
2022-10-28T06:17:31.296Z,101056.25
2022-10-28T06:19:58.101Z,101057.09
2022-10-28T06:22:24.787Z,101068.00
2022-10-28T06:24:51.523Z,101077.53
2022-10-28T06:27:18.321Z,101081.31
2022-10-28T06:29:45.057Z,101076.16
2022-10-28T06:32:11.712Z,101082.13
2022-10-28T06:34:38.448Z,101076.09
2022-10-28T06:37:05.729Z,101084.19
2022-10-28T06:39:32.944Z,101079.06
2022-10-28T06:41:59.789Z,101075.56
2022-10-28T06:44:26.639Z,101076.38
2022-10-28T06:46:55.834Z,101078.63
2022-10-28T06:49:22.673Z,101081.03
2022-10-28T06:51:50.069Z,101084.88
2022-10-28T06:54:16.766Z,101083.25
2022-10-28T06:56:49.383Z,101088.63
2022-10-28T06:59:21.261Z,101079.69
2022-10-28T07:01:52.482Z,101088.66
2022-10-28T07:04:23.798Z,101087.56
2022-10-28T07:06:58.886Z,101074.25
2022-10-28T07:09:26.868Z,101095.72
2022-10-28T07:11:55.300Z,101094.34
2022-10-28T07:14:22.691Z,101097.28
2022-10-28T07:16:49.542Z,101101.97
2022-10-28T07:19:20.278Z,101107.94
2022-10-28T07:21:49.198Z,101124.53
2022-10-28T07:24:16.007Z,101113.06
2022-10-28T07:26:42.789Z,101118.47
2022-10-28T07:29:09.557Z,101108.47
2022-10-28T07:31:36.417Z,101113.88
2022-10-28T07:34:03.254Z,101120.13
2022-10-28T07:36:30.034Z,101124.47
2022-10-28T07:38:56.909Z,101135.09
2022-10-28T07:41:24.026Z,101119.06
2022-10-28T07:43:50.906Z,101114.44
2022-10-28T07:46:18.613Z,101116.38
2022-10-28T07:48:45.749Z,101117.72
2022-10-28T07:51:14.764Z,101110.44
2022-10-28T07:53:42.129Z,101108.78
2022-10-28T07:56:14.385Z,101121.59
2022-10-28T07:58:42.678Z,101127.63
2022-10-28T08:01:11.601Z,101118.91
2022-10-28T08:03:39.358Z,101132.50
2022-10-28T08:06:12.335Z,101128.38
2022-10-28T08:08:39.695Z,101129.25
2022-10-28T08:11:27.453Z,101120.28
2022-10-28T08:13:55.813Z,101125.16
2022-10-28T08:16:22.837Z,101123.00
2022-10-28T08:18:49.545Z,101114.28
2022-10-28T08:21:16.418Z,101111.56
2022-10-28T08:23:46.727Z,101114.03
2022-10-28T08:26:15.235Z,101118.63
2022-10-28T08:28:42.587Z,101112.41
2022-10-28T08:31:10.254Z,101117.84
2022-10-28T08:33:38.909Z,101122.72
2022-10-28T08:36:07.236Z,101122.44
2022-10-28T08:38:33.894Z,101113.47
2022-10-28T08:41:31.205Z,101115.38
2022-10-28T08:44:45.152Z,101115.63
2022-10-28T08:47:39.338Z,101114.53
2022-10-28T08:50:14.761Z,101117.53
2022-10-28T08:53:05.909Z,101111.53
2022-10-28T08:55:39.413Z,101115.34
2022-10-28T08:58:19.859Z,101112.09
2022-10-28T09:01:02.370Z,101111.00
2022-10-28T09:03:49.007Z,101120.25
2022-10-28T09:06:16.730Z,101127.84
2022-10-28T09:08:48.483Z,101109.91
2022-10-28T09:11:37.181Z,101110.16
2022-10-28T09:14:28.470Z,101107.41
2022-10-28T09:17:15.654Z,101109.34
2022-10-28T09:20:11.340Z,101104.19
2022-10-28T09:22:57.748Z,101109.31
2022-10-28T09:25:50.663Z,101116.16
2022-10-28T09:28:49.057Z,101121.00
2022-10-28T09:31:42.831Z,101128.91
2022-10-28T09:34:55.026Z,101128.09
2022-10-28T09:37:32.487Z,101117.50
2022-10-28T09:40:21.777Z,101121.25
2022-10-28T09:42:54.749Z,101120.84
2022-10-28T09:45:29.361Z,101125.41
2022-10-28T09:48:05.594Z,101111.38
2022-10-28T09:50:33.415Z,101118.44
2022-10-28T09:53:21.259Z,101118.16
2022-10-28T09:55:51.779Z,101124.41
2022-10-28T09:58:19.979Z,101119.25
2022-10-28T10:00:49.248Z,101130.09
2022-10-28T10:03:18.183Z,101109.63
2022-10-28T10:05:54.158Z,101131.16
2022-10-28T10:08:29.538Z,101124.34
2022-10-28T10:11:07.666Z,101124.69
2022-10-28T10:13:44.694Z,101116.06
2022-10-28T10:16:23.868Z,101129.69
2022-10-28T10:18:57.902Z,101127.06
2022-10-28T10:21:42.319Z,101123.72
2022-10-28T10:24:25.714Z,101120.72
2022-10-28T10:26:53.960Z,101125.22
2022-10-28T10:29:22.224Z,101124.94
2022-10-28T10:32:05.347Z,101121.75
2022-10-28T10:34:33.779Z,101116.19
2022-10-28T10:39:37.924Z,101116.66
2022-10-28T10:42:16.424Z,101115.31
2022-10-28T10:44:47.058Z,101115.72
2022-10-28T10:47:18.415Z,101117.72
2022-10-28T10:49:45.084Z,101117.66
2022-10-28T10:52:22.742Z,101109.06
2022-10-28T10:55:01.872Z,101116.97
2022-10-28T10:57:31.811Z,101114.47
2022-10-28T11:00:06.475Z,101111.38
2022-10-28T11:02:41.874Z,101108.84
2022-10-28T11:05:12.995Z,101113.28
2022-10-28T11:07:48.950Z,101100.94
2022-10-28T11:10:29.862Z,101087.72
2022-10-28T11:13:26.042Z,101092.59
2022-10-28T11:16:01.033Z,101102.59
2022-10-28T11:18:31.588Z,101092.19
2022-10-28T11:21:10.806Z,101094.66
2022-10-28T11:24:16.959Z,101093.84
2022-10-28T11:27:10.554Z,101087.66
2022-10-28T11:29:37.852Z,101087.75
2022-10-28T11:32:11.995Z,101091.16
2022-10-28T11:35:08.601Z,101088.81
2022-10-28T11:37:57.506Z,101079.44
2022-10-28T11:40:55.703Z,101074.31
2022-10-28T11:43:25.796Z,101077.03
2022-10-28T11:46:05.304Z,101068.13
2022-10-28T11:48:56.758Z,101065.78
2022-10-28T11:51:37.073Z,101073.06
2022-10-28T11:54:33.368Z,101067.59
2022-10-28T11:57:29.690Z,101043.88
2022-10-28T12:00:27.117Z,101068.50
2022-10-28T12:03:36.273Z,101060.81
2022-10-28T12:06:28.193Z,101057.28
2022-10-28T12:09:16.875Z,101046.66
2022-10-28T12:12:13.282Z,101046.66
2022-10-28T12:15:05.226Z,101053.31
2022-10-28T12:17:52.541Z,101042.66
2022-10-28T12:20:46.323Z,101035.56
2022-10-28T12:23:21.166Z,101019.47
2022-10-28T12:25:54.832Z,101033.50
2022-10-28T12:28:31.631Z,101039.38
2022-10-28T12:30:58.788Z,101027.53
2022-10-28T12:33:45.691Z,101034.31
2022-10-28T12:36:46.815Z,101020.31
2022-10-28T12:39:28.892Z,101010.53
2022-10-28T12:42:21.379Z,101012.25
2022-10-28T12:44:54.039Z,101017.94
2022-10-28T12:47:51.127Z,101008.44
2022-10-28T12:50:26.177Z,101010.31
2022-10-28T12:53:15.975Z,101016.66
2022-10-28T12:55:52.353Z,101007.59
2022-10-28T12:58:27.758Z,101015.56
2022-10-28T13:01:18.916Z,101004.44
2022-10-28T13:03:50.814Z,101000.34
2022-10-28T13:06:51.798Z,100996.75
2022-10-28T13:09:39.542Z,101002.16
2022-10-28T13:12:38.191Z,100993.28
2022-10-28T13:15:30.835Z,100990.94
2022-10-28T13:18:27.849Z,100980.59
2022-10-28T13:21:13.318Z,100985.91
2022-10-28T13:24:11.450Z,100992.56
2022-10-28T13:26:43.485Z,100996.09
2022-10-28T13:29:24.167Z,100996.69
2022-10-28T13:31:52.322Z,100988.59
2022-10-28T13:34:22.595Z,100994.19
2022-10-28T13:37:03.283Z,100992.88
2022-10-28T13:39:31.640Z,100984.56
2022-10-28T13:42:23.192Z,100979.19
2022-10-28T13:44:49.767Z,100987.19
2022-10-28T13:47:16.510Z,100988.84
2022-10-28T13:50:08.499Z,100975.53
2022-10-28T13:52:40.511Z,100974.72
2022-10-28T13:55:22.682Z,100974.31
2022-10-28T13:58:00.756Z,100967.72
2022-10-28T14:00:37.931Z,100966.69
2022-10-28T14:03:23.090Z,100974.97
2022-10-28T14:05:56.037Z,100981.44
2022-10-28T14:08:33.177Z,100989.16
2022-10-28T14:11:11.888Z,100987.22
2022-10-28T14:13:59.290Z,100995.75
2022-10-28T14:16:31.533Z,100986.94
2022-10-28T14:19:09.906Z,100994.63
2022-10-28T14:21:59.063Z,101013.59
2022-10-28T14:24:33.219Z,101008.50
2022-10-28T14:27:06.356Z,101009.94
2022-10-28T14:29:43.310Z,101004.47
2022-10-28T14:32:31.967Z,101001.03
2022-10-28T14:35:03.289Z,100996.88
2022-10-28T14:38:11.956Z,100985.91
2022-10-28T14:40:50.941Z,100997.47
2022-10-28T14:43:33.299Z,101000.09
2022-10-28T14:46:11.004Z,100992.72
2022-10-28T14:48:48.462Z,100993.00
2022-10-28T14:51:19.545Z,100990.19
2022-10-28T14:53:47.117Z,100998.00
2022-10-28T14:56:31.302Z,100996.25
2022-10-28T14:59:26.467Z,100994.94
2022-10-28T15:02:02.459Z,100997.13
2022-10-28T15:04:30.307Z,100998.72
2022-10-28T15:06:59.857Z,100995.63
2022-10-28T15:09:35.426Z,101003.69
2022-10-28T15:12:06.646Z,101004.69
2022-10-28T15:14:49.301Z,101006.41
2022-10-28T15:17:23.268Z,101003.84
2022-10-28T15:19:56.844Z,101000.13
2022-10-28T15:22:28.048Z,100998.75
2022-10-28T15:25:00.461Z,100996.94
2022-10-28T15:27:38.964Z,100995.19
2022-10-28T15:30:25.392Z,100992.59
2022-10-28T15:32:54.025Z,100989.03
2022-10-28T15:35:26.921Z,101001.75
2022-10-28T15:38:00.127Z,100996.50
2022-10-28T15:40:28.617Z,100994.53
2022-10-28T15:43:05.625Z,101001.19
2022-10-28T15:45:39.707Z,101000.25
2022-10-28T15:48:14.972Z,101001.72
2022-10-28T15:50:41.929Z,101007.38
2022-10-28T15:53:11.487Z,101011.13
2022-10-28T15:58:35.784Z,101017.25
2022-10-28T16:01:02.897Z,101012.53
2022-10-28T16:03:48.243Z,101011.03
2022-10-28T16:06:36.187Z,101010.47
2022-10-28T16:09:12.570Z,101009.91
2022-10-28T16:11:45.500Z,101015.78
2022-10-28T16:14:34.804Z,101010.63
2022-10-28T16:17:23.277Z,101024.06
2022-10-28T16:19:55.355Z,101013.25
2022-10-28T16:22:26.791Z,101016.34
2022-10-28T16:24:55.645Z,101016.13
2022-10-28T16:27:27.872Z,101025.38
2022-10-28T16:29:55.211Z,101021.53
2022-10-28T16:32:52.373Z,101022.66
2022-10-28T16:35:27.402Z,101023.00
2022-10-28T16:37:56.988Z,101037.00
2022-10-28T16:40:49.893Z,101040.16
2022-10-28T16:43:19.416Z,101048.66
2022-10-28T16:45:52.581Z,101050.03
2022-10-28T16:48:21.924Z,101055.94
2022-10-28T16:50:57.048Z,101053.44
2022-10-28T16:53:25.646Z,101048.78
2022-10-28T16:56:00.264Z,101048.47
2022-10-28T16:58:29.153Z,101047.41
2022-10-28T17:00:59.613Z,101046.03
2022-10-28T17:03:27.002Z,101048.31
2022-10-28T17:05:54.408Z,101042.16
2022-10-28T17:08:42.075Z,101047.69
2022-10-28T17:11:13.751Z,101051.09
2022-10-28T17:13:40.619Z,101045.25
2022-10-28T17:16:07.591Z,101043.63
2022-10-28T17:18:34.274Z,101038.97
2022-10-28T17:21:02.320Z,101037.69
2022-10-28T17:23:29.606Z,101049.59
2022-10-28T17:26:00.902Z,101056.09
2022-10-28T17:28:27.909Z,101065.56
2022-10-28T17:31:01.903Z,101069.13
2022-10-28T17:33:28.571Z,101064.53
2022-10-28T17:35:55.149Z,101065.41
2022-10-28T17:38:21.721Z,101064.13
2022-10-28T17:40:55.359Z,101068.44
2022-10-28T17:43:22.899Z,101065.34
2022-10-28T17:45:50.353Z,101073.03
2022-10-28T17:48:17.320Z,101070.75
2022-10-28T17:50:45.157Z,101073.66
2022-10-28T17:53:11.993Z,101075.03
2022-10-28T17:55:42.230Z,101079.00
2022-10-28T17:58:09.944Z,101079.94
2022-10-28T18:00:37.172Z,101079.59
2022-10-28T18:03:06.488Z,101077.59
2022-10-28T18:05:36.052Z,101084.06
2022-10-28T18:08:06.298Z,101067.50
2022-10-28T18:10:33.439Z,101081.88
2022-10-28T18:13:00.595Z,101087.88
2022-10-28T18:15:27.705Z,101082.63
2022-10-28T18:17:54.557Z,101080.75
2022-10-28T18:20:22.721Z,101082.41
2022-10-28T18:22:49.424Z,101086.22
2022-10-28T18:25:16.433Z,101087.84
2022-10-28T18:27:44.135Z,101087.41
2022-10-28T18:30:11.264Z,101088.66
2022-10-28T18:32:38.207Z,101088.44
2022-10-28T18:35:05.340Z,101092.44
2022-10-28T18:37:32.187Z,101092.28
2022-10-28T18:39:58.876Z,101083.88
2022-10-28T18:42:25.885Z,101089.03
2022-10-28T18:44:58.406Z,101088.78
2022-10-28T18:47:25.734Z,101088.44
2022-10-28T18:49:52.648Z,101086.75
2022-10-28T18:52:19.321Z,101092.66
2022-10-28T18:54:46.058Z,101096.91
2022-10-28T18:57:12.726Z,101093.38
2022-10-28T19:00:12.614Z,101092.13
2022-10-28T19:02:28.398Z,101078.63
2022-10-28T19:04:55.424Z,101083.22
2022-10-28T19:07:22.221Z,101087.56
2022-10-28T19:09:48.849Z,101094.41
2022-10-28T19:12:15.573Z,101095.09
2022-10-28T19:14:42.196Z,101098.25
2022-10-28T19:17:08.964Z,101108.13
2022-10-28T19:19:38.482Z,101108.84
2022-10-28T19:22:08.055Z,101110.34
2022-10-28T19:24:35.019Z,101106.09
2022-10-28T19:27:01.809Z,101111.88
2022-10-28T19:29:28.539Z,101108.63
2022-10-28T19:31:55.225Z,101123.66
2022-10-28T19:34:21.869Z,101114.63
2022-10-28T19:36:48.603Z,101112.97
2022-10-28T19:39:15.255Z,101120.25
2022-10-28T19:41:43.254Z,101112.69
2022-10-28T19:44:10.018Z,101117.38
2022-10-28T19:46:36.980Z,101117.41
2022-10-28T19:49:05.812Z,101122.59
2022-10-28T19:51:39.116Z,101127.78
2022-10-28T19:54:13.135Z,101129.13
2022-10-28T19:56:40.087Z,101134.81
2022-10-28T19:59:07.357Z,101142.75
2022-10-28T20:01:37.071Z,101140.59
2022-10-28T20:04:04.483Z,101147.97
2022-10-28T20:06:33.604Z,101139.00
2022-10-28T20:09:00.640Z,101137.88
2022-10-28T20:11:33.023Z,101137.78
2022-10-28T20:14:11.911Z,101133.84
2022-10-28T20:16:42.313Z,101130.31
2022-10-28T20:19:09.223Z,101127.78
2022-10-28T20:21:37.242Z,101127.22
2022-10-28T20:24:06.082Z,101131.38
2022-10-28T20:26:37.175Z,101127.81
2022-10-28T20:29:09.387Z,101132.94
2022-10-28T20:31:39.378Z,101133.56
2022-10-28T20:34:07.427Z,101139.91
2022-10-28T20:36:44.053Z,101135.72
2022-10-28T20:39:17.784Z,101141.16
2022-10-28T20:41:48.323Z,101149.03
2022-10-28T20:44:15.675Z,101144.81
2022-10-28T20:46:45.187Z,101148.97
2022-10-28T20:49:16.872Z,101150.59
2022-10-28T20:51:44.248Z,101151.97
2022-10-28T20:54:11.874Z,101153.31
2022-10-28T20:56:44.586Z,101159.31
2022-10-28T20:59:16.163Z,101165.19
2022-10-28T21:01:44.126Z,101166.53
2022-10-28T21:04:11.734Z,101162.44
2022-10-28T21:06:41.752Z,101159.25
2022-10-28T21:09:12.422Z,101170.78
2022-10-28T21:11:40.582Z,101155.81
2022-10-28T21:14:13.088Z,101161.31
2022-10-28T21:16:39.885Z,101164.78
2022-10-28T21:19:12.568Z,101169.84
2022-10-28T21:21:44.957Z,101171.81
2022-10-28T21:24:15.196Z,101162.88
2022-10-28T21:26:47.228Z,101165.91
2022-10-28T21:29:16.611Z,101183.81
2022-10-28T21:31:43.569Z,101186.00
2022-10-28T21:34:10.681Z,101180.59
2022-10-28T21:36:39.422Z,101182.50
2022-10-28T21:39:10.667Z,101185.50
2022-10-28T21:41:38.382Z,101181.94
2022-10-28T21:44:06.213Z,101189.88
2022-10-28T21:46:32.846Z,101188.50
2022-10-28T21:49:00.812Z,101195.31
2022-10-28T21:51:27.516Z,101196.41
2022-10-28T21:53:54.111Z,101207.03
2022-10-28T21:56:20.840Z,101203.47
2022-10-28T21:58:49.588Z,101204.28
2022-10-28T22:01:19.260Z,101212.72
2022-10-28T22:03:46.283Z,101207.84
2022-10-28T22:06:13.277Z,101205.38
2022-10-28T22:08:39.987Z,101196.41
2022-10-28T22:11:09.819Z,101198.56
2022-10-28T22:13:36.442Z,101195.03
2022-10-28T22:16:06.415Z,101192.03
2022-10-28T22:18:35.279Z,101197.78
2022-10-28T22:21:13.735Z,101214.63
2022-10-28T22:23:40.734Z,101204.59
2022-10-28T22:26:09.458Z,101196.13
2022-10-28T22:28:36.343Z,101191.78
2022-10-28T22:31:10.013Z,101195.84
2022-10-28T22:33:37.284Z,101195.88
2022-10-28T22:36:09.905Z,101195.31
2022-10-28T22:38:36.622Z,101195.88
2022-10-28T22:41:17.625Z,101191.53
2022-10-28T22:43:46.689Z,101186.88
2022-10-28T22:46:15.137Z,101176.81
2022-10-28T22:48:41.910Z,101179.81
2022-10-28T22:51:11.923Z,101170.84
2022-10-28T22:53:39.838Z,101179.53
2022-10-28T22:56:08.524Z,101169.78
2022-10-28T22:58:35.412Z,101172.50
2022-10-28T23:01:07.171Z,101171.94
2022-10-28T23:03:42.222Z,101179.56
2022-10-28T23:06:10.339Z,101171.94
2022-10-28T23:08:38.973Z,101169.22
2022-10-28T23:11:06.373Z,101170.28
2022-10-28T23:13:33.306Z,101168.66
2022-10-28T23:16:07.977Z,101165.94
2022-10-28T23:18:35.402Z,101162.97
2022-10-28T23:21:12.177Z,101158.09
2022-10-28T23:23:39.892Z,101162.72
2022-10-28T23:26:07.602Z,101160.78
2022-10-28T23:28:34.219Z,101159.72
2022-10-28T23:31:02.289Z,101156.44
2022-10-28T23:33:30.278Z,101164.59
2022-10-28T23:35:58.415Z,101167.31
2022-10-28T23:38:25.300Z,101168.69
2022-10-28T23:41:02.058Z,101174.63
2022-10-28T23:43:31.925Z,101162.69
2022-10-28T23:46:01.167Z,101178.69
2022-10-28T23:48:29.405Z,101172.44
2022-10-28T23:50:57.521Z,101168.66
2022-10-28T23:53:26.047Z,101173.56
2022-10-28T23:55:55.316Z,101163.53
2022-10-28T23:58:22.680Z,101169.50
